sensor_id;sensor_type;location;lat;lon;timestamp;temperature;humidity
39067;DHT22;24821;51.988;6.020;2023-12-20T00:02:24;7.60;99.90
39067;DHT22;24821;51.988;6.020;2023-12-20T00:04:49;7.60;99.90
39067;DHT22;24821;51.988;6.020;2023-12-20T00:07:15;7.60;99.90
39067;DHT22;24821;51.988;6.020;2023-12-20T00:09:40;7.60;99.90
39067;DHT22;24821;51.988;6.020;2023-12-20T00:12:06;7.50;99.90
39067;DHT22;24821;51.988;6.020;2023-12-20T00:14:31;7.50;99.90
39067;DHT22;24821;51.988;6.020;2023-12-20T00:16:57;7.50;99.90
39067;DHT22;24821;51.988;6.020;2023-12-20T00:19:22;7.50;99.90
39067;DHT22;24821;51.988;6.020;2023-12-20T00:21:48;7.40;99.90
39067;DHT22;24821;51.988;6.020;2023-12-20T00:24:13;7.40;99.90
39067;DHT22;24821;51.988;6.020;2023-12-20T00:26:39;7.40;99.90
39067;DHT22;24821;51.988;6.020;2023-12-20T00:29:04;7.40;99.90
39067;DHT22;24821;51.988;6.020;2023-12-20T00:31:30;7.40;99.90
39067;DHT22;24821;51.988;6.020;2023-12-20T00:33:55;7.40;99.90
39067;DHT22;24821;51.988;6.020;2023-12-20T00:36:21;7.40;99.90
39067;DHT22;24821;51.988;6.020;2023-12-20T00:38:47;7.50;99.90
39067;DHT22;24821;51.988;6.020;2023-12-20T00:41:13;7.40;99.90
39067;DHT22;24821;51.988;6.020;2023-12-20T00:43:38;7.40;99.90
39067;DHT22;24821;51.988;6.020;2023-12-20T00:46:04;7.40;99.90
39067;DHT22;24821;51.988;6.020;2023-12-20T00:48:29;7.40;99.90
39067;DHT22;24821;51.988;6.020;2023-12-20T00:50:57;7.30;99.90
39067;DHT22;24821;51.988;6.020;2023-12-20T00:53:22;7.30;99.90
39067;DHT22;24821;51.988;6.020;2023-12-20T00:55:48;7.30;99.90
39067;DHT22;24821;51.988;6.020;2023-12-20T00:58:13;7.20;99.90
39067;DHT22;24821;51.988;6.020;2023-12-20T01:00:40;7.20;99.90
39067;DHT22;24821;51.988;6.020;2023-12-20T01:03:07;7.20;99.90
39067;DHT22;24821;51.988;6.020;2023-12-20T01:05:32;7.20;99.90
39067;DHT22;24821;51.988;6.020;2023-12-20T01:07:58;7.20;99.90
39067;DHT22;24821;51.988;6.020;2023-12-20T01:10:23;7.20;99.90
39067;DHT22;24821;51.988;6.020;2023-12-20T01:12:49;7.10;99.90
39067;DHT22;24821;51.988;6.020;2023-12-20T01:15:14;7.10;99.90
39067;DHT22;24821;51.988;6.020;2023-12-20T01:17:40;7.10;99.90
39067;DHT22;24821;51.988;6.020;2023-12-20T01:20:05;7.00;99.90
39067;DHT22;24821;51.988;6.020;2023-12-20T01:22:31;7.00;99.90
39067;DHT22;24821;51.988;6.020;2023-12-20T01:24:56;7.00;99.90
39067;DHT22;24821;51.988;6.020;2023-12-20T01:27:22;6.90;99.90
39067;DHT22;24821;51.988;6.020;2023-12-20T01:29:47;6.90;99.90
39067;DHT22;24821;51.988;6.020;2023-12-20T01:32:13;7.00;99.90
39067;DHT22;24821;51.988;6.020;2023-12-20T01:34:39;7.00;99.90
39067;DHT22;24821;51.988;6.020;2023-12-20T01:37:04;7.00;99.90
39067;DHT22;24821;51.988;6.020;2023-12-20T01:39:30;6.90;99.90
39067;DHT22;24821;51.988;6.020;2023-12-20T01:41:55;6.90;99.90
39067;DHT22;24821;51.988;6.020;2023-12-20T01:44:20;6.90;99.90
39067;DHT22;24821;51.988;6.020;2023-12-20T01:46:46;6.90;99.90
39067;DHT22;24821;51.988;6.020;2023-12-20T01:49:12;6.90;99.90
39067;DHT22;24821;51.988;6.020;2023-12-20T01:51:37;6.90;99.90
39067;DHT22;24821;51.988;6.020;2023-12-20T01:54:03;6.90;99.90
39067;DHT22;24821;51.988;6.020;2023-12-20T01:56:29;6.90;99.90
39067;DHT22;24821;51.988;6.020;2023-12-20T01:58:55;6.90;99.90
39067;DHT22;24821;51.988;6.020;2023-12-20T02:01:21;6.90;99.90
39067;DHT22;24821;51.988;6.020;2023-12-20T02:03:46;6.90;99.90
39067;DHT22;24821;51.988;6.020;2023-12-20T02:06:12;6.90;99.90
39067;DHT22;24821;51.988;6.020;2023-12-20T02:08:38;6.90;99.90
39067;DHT22;24821;51.988;6.020;2023-12-20T02:11:03;6.90;99.90
39067;DHT22;24821;51.988;6.020;2023-12-20T02:13:29;6.90;99.90
39067;DHT22;24821;51.988;6.020;2023-12-20T02:15:55;7.00;99.90
39067;DHT22;24821;51.988;6.020;2023-12-20T02:18:21;6.90;99.90
39067;DHT22;24821;51.988;6.020;2023-12-20T02:20:46;7.00;99.90
39067;DHT22;24821;51.988;6.020;2023-12-20T02:23:12;7.00;99.90
39067;DHT22;24821;51.988;6.020;2023-12-20T02:25:37;7.00;99.90
39067;DHT22;24821;51.988;6.020;2023-12-20T02:28:03;7.00;99.90
39067;DHT22;24821;51.988;6.020;2023-12-20T02:30:29;7.00;99.90
39067;DHT22;24821;51.988;6.020;2023-12-20T02:32:54;7.10;99.90
39067;DHT22;24821;51.988;6.020;2023-12-20T02:35:20;7.00;99.90
39067;DHT22;24821;51.988;6.020;2023-12-20T02:37:45;7.00;99.90
39067;DHT22;24821;51.988;6.020;2023-12-20T02:40:11;7.00;99.90
39067;DHT22;24821;51.988;6.020;2023-12-20T02:42:36;7.00;99.90
39067;DHT22;24821;51.988;6.020;2023-12-20T02:45:02;7.10;99.90
39067;DHT22;24821;51.988;6.020;2023-12-20T02:47:27;7.10;99.90
39067;DHT22;24821;51.988;6.020;2023-12-20T02:49:55;7.10;99.90
39067;DHT22;24821;51.988;6.020;2023-12-20T02:52:20;7.10;99.90
39067;DHT22;24821;51.988;6.020;2023-12-20T02:54:46;7.10;99.90
39067;DHT22;24821;51.988;6.020;2023-12-20T02:57:11;7.10;99.90
39067;DHT22;24821;51.988;6.020;2023-12-20T02:59:37;7.10;99.90
39067;DHT22;24821;51.988;6.020;2023-12-20T03:02:02;7.10;99.90
39067;DHT22;24821;51.988;6.020;2023-12-20T03:04:28;7.10;99.90
39067;DHT22;24821;51.988;6.020;2023-12-20T03:06:53;7.10;99.90
39067;DHT22;24821;51.988;6.020;2023-12-20T03:09:19;7.20;99.90
39067;DHT22;24821;51.988;6.020;2023-12-20T03:11:44;7.20;99.90
39067;DHT22;24821;51.988;6.020;2023-12-20T03:14:10;7.20;99.90
39067;DHT22;24821;51.988;6.020;2023-12-20T03:16:35;7.20;99.90
39067;DHT22;24821;51.988;6.020;2023-12-20T03:19:00;7.20;99.90
39067;DHT22;24821;51.988;6.020;2023-12-20T03:21:26;7.20;99.90
39067;DHT22;24821;51.988;6.020;2023-12-20T03:23:51;7.20;99.90
39067;DHT22;24821;51.988;6.020;2023-12-20T03:26:17;7.20;99.90
39067;DHT22;24821;51.988;6.020;2023-12-20T03:28:42;7.20;99.90
39067;DHT22;24821;51.988;6.020;2023-12-20T03:31:09;7.10;99.90
39067;DHT22;24821;51.988;6.020;2023-12-20T03:33:34;7.10;99.90
39067;DHT22;24821;51.988;6.020;2023-12-20T03:36:00;7.00;99.90
39067;DHT22;24821;51.988;6.020;2023-12-20T03:38:25;7.00;99.90
39067;DHT22;24821;51.988;6.020;2023-12-20T03:40:51;6.90;99.90
39067;DHT22;24821;51.988;6.020;2023-12-20T03:43:16;6.90;99.90
39067;DHT22;24821;51.988;6.020;2023-12-20T03:45:42;6.90;99.90
39067;DHT22;24821;51.988;6.020;2023-12-20T03:48:07;6.90;99.90
39067;DHT22;24821;51.988;6.020;2023-12-20T03:50:33;6.90;99.90
39067;DHT22;24821;51.988;6.020;2023-12-20T03:52:59;6.90;99.90
39067;DHT22;24821;51.988;6.020;2023-12-20T03:55:24;6.80;99.90
39067;DHT22;24821;51.988;6.020;2023-12-20T03:57:50;6.80;99.90
39067;DHT22;24821;51.988;6.020;2023-12-20T04:00:15;6.80;99.90
39067;DHT22;24821;51.988;6.020;2023-12-20T04:02:41;6.80;99.90
39067;DHT22;24821;51.988;6.020;2023-12-20T04:05:07;6.80;99.90
39067;DHT22;24821;51.988;6.020;2023-12-20T04:07:33;6.80;99.90
39067;DHT22;24821;51.988;6.020;2023-12-20T04:09:58;6.70;99.90
39067;DHT22;24821;51.988;6.020;2023-12-20T04:12:24;6.70;99.90
39067;DHT22;24821;51.988;6.020;2023-12-20T04:14:49;6.70;99.90
39067;DHT22;24821;51.988;6.020;2023-12-20T04:17:15;6.70;99.90
39067;DHT22;24821;51.988;6.020;2023-12-20T04:19:44;6.70;99.90
39067;DHT22;24821;51.988;6.020;2023-12-20T04:22:09;6.70;99.90
39067;DHT22;24821;51.988;6.020;2023-12-20T04:24:35;6.80;99.90
39067;DHT22;24821;51.988;6.020;2023-12-20T04:27:01;6.80;99.90
39067;DHT22;24821;51.988;6.020;2023-12-20T04:29:26;6.90;99.90
39067;DHT22;24821;51.988;6.020;2023-12-20T04:31:52;6.90;99.90
39067;DHT22;24821;51.988;6.020;2023-12-20T04:34:17;6.90;99.90
39067;DHT22;24821;51.988;6.020;2023-12-20T04:36:43;6.90;99.90
39067;DHT22;24821;51.988;6.020;2023-12-20T04:39:08;6.80;99.90
39067;DHT22;24821;51.988;6.020;2023-12-20T04:41:34;6.80;99.90
39067;DHT22;24821;51.988;6.020;2023-12-20T04:43:59;6.90;99.90
39067;DHT22;24821;51.988;6.020;2023-12-20T04:46:26;6.90;99.90
39067;DHT22;24821;51.988;6.020;2023-12-20T04:48:51;6.90;99.90
39067;DHT22;24821;51.988;6.020;2023-12-20T04:51:16;6.90;99.90
39067;DHT22;24821;51.988;6.020;2023-12-20T04:53:42;6.90;99.90
39067;DHT22;24821;51.988;6.020;2023-12-20T04:56:07;7.00;99.90
39067;DHT22;24821;51.988;6.020;2023-12-20T04:58:33;7.00;99.90
39067;DHT22;24821;51.988;6.020;2023-12-20T05:00:58;7.10;99.90
39067;DHT22;24821;51.988;6.020;2023-12-20T05:03:24;7.10;99.90
39067;DHT22;24821;51.988;6.020;2023-12-20T05:05:49;7.10;99.90
39067;DHT22;24821;51.988;6.020;2023-12-20T05:08:15;7.20;99.90
39067;DHT22;24821;51.988;6.020;2023-12-20T05:10:40;7.20;99.90
39067;DHT22;24821;51.988;6.020;2023-12-20T05:13:06;7.20;99.90
39067;DHT22;24821;51.988;6.020;2023-12-20T05:15:31;7.20;99.90
39067;DHT22;24821;51.988;6.020;2023-12-20T05:17:57;7.30;99.90
39067;DHT22;24821;51.988;6.020;2023-12-20T05:20:22;7.30;99.90
39067;DHT22;24821;51.988;6.020;2023-12-20T05:22:48;7.30;99.90
39067;DHT22;24821;51.988;6.020;2023-12-20T05:25:14;7.30;99.90
39067;DHT22;24821;51.988;6.020;2023-12-20T05:27:39;7.30;99.90
39067;DHT22;24821;51.988;6.020;2023-12-20T05:30:05;7.30;99.90
39067;DHT22;24821;51.988;6.020;2023-12-20T05:32:31;7.40;99.90
39067;DHT22;24821;51.988;6.020;2023-12-20T05:34:56;7.40;99.90
39067;DHT22;24821;51.988;6.020;2023-12-20T05:37:22;7.40;99.90
39067;DHT22;24821;51.988;6.020;2023-12-20T05:39:47;7.50;99.90
39067;DHT22;24821;51.988;6.020;2023-12-20T05:42:13;7.50;99.90
39067;DHT22;24821;51.988;6.020;2023-12-20T05:44:38;7.50;99.90
39067;DHT22;24821;51.988;6.020;2023-12-20T05:47:03;7.50;99.90
39067;DHT22;24821;51.988;6.020;2023-12-20T05:49:29;7.60;99.90
39067;DHT22;24821;51.988;6.020;2023-12-20T05:51:54;7.60;99.90
39067;DHT22;24821;51.988;6.020;2023-12-20T05:54:20;7.70;99.90
39067;DHT22;24821;51.988;6.020;2023-12-20T05:56:46;7.70;99.90
39067;DHT22;24821;51.988;6.020;2023-12-20T05:59:12;7.70;99.90
39067;DHT22;24821;51.988;6.020;2023-12-20T06:01:37;7.70;99.90
39067;DHT22;24821;51.988;6.020;2023-12-20T06:04:03;7.80;99.90
39067;DHT22;24821;51.988;6.020;2023-12-20T06:06:29;7.80;99.90
39067;DHT22;24821;51.988;6.020;2023-12-20T06:08:55;7.80;99.90
39067;DHT22;24821;51.988;6.020;2023-12-20T06:11:21;7.80;99.90
39067;DHT22;24821;51.988;6.020;2023-12-20T06:13:46;7.80;99.90
39067;DHT22;24821;51.988;6.020;2023-12-20T06:16:12;7.90;99.90
39067;DHT22;24821;51.988;6.020;2023-12-20T06:18:38;7.90;99.90
39067;DHT22;24821;51.988;6.020;2023-12-20T06:21:03;7.90;99.90
39067;DHT22;24821;51.988;6.020;2023-12-20T06:23:29;7.90;99.90
39067;DHT22;24821;51.988;6.020;2023-12-20T06:25:55;7.90;99.90
39067;DHT22;24821;51.988;6.020;2023-12-20T06:28:20;7.90;99.90
39067;DHT22;24821;51.988;6.020;2023-12-20T06:30:45;7.90;99.90
39067;DHT22;24821;51.988;6.020;2023-12-20T06:33:14;8.00;99.90
39067;DHT22;24821;51.988;6.020;2023-12-20T06:35:39;7.90;99.90
39067;DHT22;24821;51.988;6.020;2023-12-20T06:38:05;7.90;99.90
39067;DHT22;24821;51.988;6.020;2023-12-20T06:40:30;7.90;99.90
39067;DHT22;24821;51.988;6.020;2023-12-20T06:42:56;8.00;99.90
39067;DHT22;24821;51.988;6.020;2023-12-20T06:45:21;7.90;99.90
39067;DHT22;24821;51.988;6.020;2023-12-20T06:47:47;8.00;99.90
39067;DHT22;24821;51.988;6.020;2023-12-20T06:50:12;8.00;99.90
39067;DHT22;24821;51.988;6.020;2023-12-20T06:52:38;8.00;99.90
39067;DHT22;24821;51.988;6.020;2023-12-20T06:55:03;8.00;99.90
39067;DHT22;24821;51.988;6.020;2023-12-20T06:57:29;8.00;99.90
39067;DHT22;24821;51.988;6.020;2023-12-20T06:59:55;7.90;99.90
39067;DHT22;24821;51.988;6.020;2023-12-20T07:02:21;8.00;99.90
39067;DHT22;24821;51.988;6.020;2023-12-20T07:04:47;8.00;99.90
39067;DHT22;24821;51.988;6.020;2023-12-20T07:07:13;8.00;99.90
39067;DHT22;24821;51.988;6.020;2023-12-20T07:09:38;8.00;99.90
39067;DHT22;24821;51.988;6.020;2023-12-20T07:12:06;8.00;99.90
39067;DHT22;24821;51.988;6.020;2023-12-20T07:14:31;8.10;99.90
39067;DHT22;24821;51.988;6.020;2023-12-20T07:16:57;8.10;99.90
39067;DHT22;24821;51.988;6.020;2023-12-20T07:19:22;8.10;99.90
39067;DHT22;24821;51.988;6.020;2023-12-20T07:21:48;8.10;99.90
39067;DHT22;24821;51.988;6.020;2023-12-20T07:24:13;8.10;99.90
39067;DHT22;24821;51.988;6.020;2023-12-20T07:26:39;8.10;99.90
39067;DHT22;24821;51.988;6.020;2023-12-20T07:29:05;8.10;99.90
39067;DHT22;24821;51.988;6.020;2023-12-20T07:31:32;8.10;99.90
39067;DHT22;24821;51.988;6.020;2023-12-20T07:33:57;8.10;99.90
39067;DHT22;24821;51.988;6.020;2023-12-20T07:36:23;8.10;99.90
39067;DHT22;24821;51.988;6.020;2023-12-20T07:38:48;8.10;99.90
39067;DHT22;24821;51.988;6.020;2023-12-20T07:41:14;8.10;99.90
39067;DHT22;24821;51.988;6.020;2023-12-20T07:43:41;8.10;99.90
39067;DHT22;24821;51.988;6.020;2023-12-20T07:46:07;8.10;99.90
39067;DHT22;24821;51.988;6.020;2023-12-20T07:48:35;8.20;99.90
39067;DHT22;24821;51.988;6.020;2023-12-20T07:51:01;8.20;99.90
39067;DHT22;24821;51.988;6.020;2023-12-20T07:53:27;8.10;99.90
39067;DHT22;24821;51.988;6.020;2023-12-20T07:55:52;8.10;99.90
39067;DHT22;24821;51.988;6.020;2023-12-20T07:58:18;8.10;99.90
39067;DHT22;24821;51.988;6.020;2023-12-20T08:00:44;8.20;99.90
39067;DHT22;24821;51.988;6.020;2023-12-20T08:03:09;8.20;99.90
39067;DHT22;24821;51.988;6.020;2023-12-20T08:05:34;8.20;99.90
39067;DHT22;24821;51.988;6.020;2023-12-20T08:08:00;8.20;99.90
39067;DHT22;24821;51.988;6.020;2023-12-20T08:10:25;8.10;99.90
39067;DHT22;24821;51.988;6.020;2023-12-20T08:12:52;8.20;99.90
39067;DHT22;24821;51.988;6.020;2023-12-20T08:15:17;8.20;99.90
39067;DHT22;24821;51.988;6.020;2023-12-20T08:17:43;8.20;99.90
39067;DHT22;24821;51.988;6.020;2023-12-20T08:20:08;8.20;99.90
39067;DHT22;24821;51.988;6.020;2023-12-20T08:22:34;8.20;99.90
39067;DHT22;24821;51.988;6.020;2023-12-20T08:24:59;8.20;99.90
39067;DHT22;24821;51.988;6.020;2023-12-20T08:27:25;8.20;99.90
39067;DHT22;24821;51.988;6.020;2023-12-20T08:29:51;8.20;99.90
39067;DHT22;24821;51.988;6.020;2023-12-20T08:32:16;8.20;99.90
39067;DHT22;24821;51.988;6.020;2023-12-20T08:34:42;8.20;99.90
39067;DHT22;24821;51.988;6.020;2023-12-20T08:37:07;8.30;99.90
39067;DHT22;24821;51.988;6.020;2023-12-20T08:39:33;8.30;99.90
39067;DHT22;24821;51.988;6.020;2023-12-20T08:41:59;8.30;99.90
39067;DHT22;24821;51.988;6.020;2023-12-20T08:44:24;8.30;99.90
39067;DHT22;24821;51.988;6.020;2023-12-20T08:46:49;8.30;99.90
39067;DHT22;24821;51.988;6.020;2023-12-20T08:49:15;8.30;99.90
39067;DHT22;24821;51.988;6.020;2023-12-20T08:51:41;8.30;99.90
39067;DHT22;24821;51.988;6.020;2023-12-20T08:54:07;8.30;99.90
39067;DHT22;24821;51.988;6.020;2023-12-20T08:56:35;8.30;99.90
39067;DHT22;24821;51.988;6.020;2023-12-20T08:59:01;8.30;99.90
39067;DHT22;24821;51.988;6.020;2023-12-20T09:01:26;8.30;99.90
39067;DHT22;24821;51.988;6.020;2023-12-20T09:03:52;8.30;99.90
39067;DHT22;24821;51.988;6.020;2023-12-20T09:06:17;8.30;99.90
39067;DHT22;24821;51.988;6.020;2023-12-20T09:08:43;8.30;99.90
39067;DHT22;24821;51.988;6.020;2023-12-20T09:11:08;8.30;99.90
39067;DHT22;24821;51.988;6.020;2023-12-20T09:13:34;8.30;99.90
39067;DHT22;24821;51.988;6.020;2023-12-20T09:15:59;8.30;99.90
39067;DHT22;24821;51.988;6.020;2023-12-20T09:18:25;8.30;99.90
39067;DHT22;24821;51.988;6.020;2023-12-20T09:20:50;8.30;99.90
39067;DHT22;24821;51.988;6.020;2023-12-20T09:23:16;8.30;99.90
39067;DHT22;24821;51.988;6.020;2023-12-20T09:25:42;8.30;99.90
39067;DHT22;24821;51.988;6.020;2023-12-20T09:28:08;8.30;99.90
39067;DHT22;24821;51.988;6.020;2023-12-20T09:30:33;8.30;99.90
39067;DHT22;24821;51.988;6.020;2023-12-20T09:33:00;8.30;99.90
39067;DHT22;24821;51.988;6.020;2023-12-20T09:35:26;8.30;99.90
39067;DHT22;24821;51.988;6.020;2023-12-20T09:37:52;8.30;99.90
39067;DHT22;24821;51.988;6.020;2023-12-20T09:40:18;8.30;99.90
39067;DHT22;24821;51.988;6.020;2023-12-20T09:45:13;8.30;99.90
39067;DHT22;24821;51.988;6.020;2023-12-20T09:47:40;8.30;99.90
39067;DHT22;24821;51.988;6.020;2023-12-20T09:50:06;8.30;99.90
39067;DHT22;24821;51.988;6.020;2023-12-20T09:52:31;8.30;99.90
39067;DHT22;24821;51.988;6.020;2023-12-20T09:54:58;8.30;99.90
39067;DHT22;24821;51.988;6.020;2023-12-20T09:57:23;8.30;99.90
39067;DHT22;24821;51.988;6.020;2023-12-20T09:59:49;8.30;99.90
39067;DHT22;24821;51.988;6.020;2023-12-20T10:02:15;8.30;99.90
39067;DHT22;24821;51.988;6.020;2023-12-20T10:04:46;8.30;99.90
39067;DHT22;24821;51.988;6.020;2023-12-20T10:07:12;8.30;99.90
39067;DHT22;24821;51.988;6.020;2023-12-20T10:09:38;8.30;99.90
39067;DHT22;24821;51.988;6.020;2023-12-20T10:12:03;8.30;99.90
39067;DHT22;24821;51.988;6.020;2023-12-20T10:14:30;8.20;99.90
39067;DHT22;24821;51.988;6.020;2023-12-20T10:17:01;8.20;99.90
39067;DHT22;24821;51.988;6.020;2023-12-20T10:19:27;8.30;99.90
39067;DHT22;24821;51.988;6.020;2023-12-20T10:21:52;8.30;99.90
39067;DHT22;24821;51.988;6.020;2023-12-20T10:24:18;8.30;99.90
39067;DHT22;24821;51.988;6.020;2023-12-20T10:26:43;8.30;99.90
39067;DHT22;24821;51.988;6.020;2023-12-20T10:29:09;8.30;99.90
39067;DHT22;24821;51.988;6.020;2023-12-20T10:31:35;8.30;99.90
39067;DHT22;24821;51.988;6.020;2023-12-20T10:34:01;8.40;99.90
39067;DHT22;24821;51.988;6.020;2023-12-20T10:36:31;8.40;99.90
39067;DHT22;24821;51.988;6.020;2023-12-20T10:38:57;8.40;99.90
39067;DHT22;24821;51.988;6.020;2023-12-20T10:41:27;8.50;99.90
39067;DHT22;24821;51.988;6.020;2023-12-20T10:44:02;8.40;99.90
39067;DHT22;24821;51.988;6.020;2023-12-20T10:46:28;8.40;99.90
39067;DHT22;24821;51.988;6.020;2023-12-20T10:48:55;8.40;99.90
39067;DHT22;24821;51.988;6.020;2023-12-20T10:51:21;8.50;99.90
39067;DHT22;24821;51.988;6.020;2023-12-20T10:53:48;8.40;99.90
39067;DHT22;24821;51.988;6.020;2023-12-20T10:56:15;8.40;99.90
39067;DHT22;24821;51.988;6.020;2023-12-20T10:58:42;8.40;99.90
39067;DHT22;24821;51.988;6.020;2023-12-20T11:01:12;8.40;99.90
39067;DHT22;24821;51.988;6.020;2023-12-20T11:03:38;8.40;99.90
39067;DHT22;24821;51.988;6.020;2023-12-20T11:06:09;8.40;99.90
39067;DHT22;24821;51.988;6.020;2023-12-20T11:11:12;8.40;99.90
39067;DHT22;24821;51.988;6.020;2023-12-20T11:13:41;8.40;99.90
39067;DHT22;24821;51.988;6.020;2023-12-20T11:16:09;8.40;99.90
39067;DHT22;24821;51.988;6.020;2023-12-20T11:18:35;8.50;99.90
39067;DHT22;24821;51.988;6.020;2023-12-20T11:21:01;8.50;99.90
39067;DHT22;24821;51.988;6.020;2023-12-20T11:23:30;8.50;99.90
39067;DHT22;24821;51.988;6.020;2023-12-20T11:25:59;8.60;99.90
39067;DHT22;24821;51.988;6.020;2023-12-20T11:28:25;8.60;99.90
39067;DHT22;24821;51.988;6.020;2023-12-20T11:30:51;8.60;99.90
39067;DHT22;24821;51.988;6.020;2023-12-20T11:33:20;8.60;99.90
39067;DHT22;24821;51.988;6.020;2023-12-20T11:35:46;8.60;99.90
39067;DHT22;24821;51.988;6.020;2023-12-20T11:38:13;8.60;99.90
39067;DHT22;24821;51.988;6.020;2023-12-20T11:40:38;8.60;99.90
39067;DHT22;24821;51.988;6.020;2023-12-20T11:43:04;8.70;99.90
39067;DHT22;24821;51.988;6.020;2023-12-20T11:45:33;8.70;99.90
39067;DHT22;24821;51.988;6.020;2023-12-20T11:48:00;8.70;99.90
39067;DHT22;24821;51.988;6.020;2023-12-20T11:50:27;8.80;99.90
39067;DHT22;24821;51.988;6.020;2023-12-20T11:52:53;8.80;99.90
39067;DHT22;24821;51.988;6.020;2023-12-20T11:55:21;8.90;99.90
39067;DHT22;24821;51.988;6.020;2023-12-20T11:57:46;8.90;99.90
39067;DHT22;24821;51.988;6.020;2023-12-20T12:00:12;8.90;99.90
39067;DHT22;24821;51.988;6.020;2023-12-20T12:02:38;8.90;99.90
39067;DHT22;24821;51.988;6.020;2023-12-20T12:05:04;8.90;99.90
39067;DHT22;24821;51.988;6.020;2023-12-20T12:07:31;8.90;99.90
39067;DHT22;24821;51.988;6.020;2023-12-20T12:09:56;9.00;99.90
39067;DHT22;24821;51.988;6.020;2023-12-20T12:12:22;9.00;99.90
39067;DHT22;24821;51.988;6.020;2023-12-20T12:14:48;9.00;99.90
39067;DHT22;24821;51.988;6.020;2023-12-20T12:17:14;9.00;99.90
39067;DHT22;24821;51.988;6.020;2023-12-20T12:19:40;9.00;99.90
39067;DHT22;24821;51.988;6.020;2023-12-20T12:22:06;9.10;99.90
39067;DHT22;24821;51.988;6.020;2023-12-20T12:24:45;9.00;99.90
39067;DHT22;24821;51.988;6.020;2023-12-20T12:27:11;9.00;99.90
39067;DHT22;24821;51.988;6.020;2023-12-20T12:29:37;9.00;99.90
39067;DHT22;24821;51.988;6.020;2023-12-20T12:32:06;9.10;99.90
39067;DHT22;24821;51.988;6.020;2023-12-20T12:34:32;9.10;99.90
39067;DHT22;24821;51.988;6.020;2023-12-20T12:36:59;9.10;99.90
39067;DHT22;24821;51.988;6.020;2023-12-20T12:39:25;9.10;99.90
39067;DHT22;24821;51.988;6.020;2023-12-20T12:41:51;9.20;99.90
39067;DHT22;24821;51.988;6.020;2023-12-20T12:44:16;9.20;99.90
39067;DHT22;24821;51.988;6.020;2023-12-20T12:46:43;9.30;99.90
39067;DHT22;24821;51.988;6.020;2023-12-20T12:49:09;9.30;99.90
39067;DHT22;24821;51.988;6.020;2023-12-20T12:51:34;9.30;99.90
39067;DHT22;24821;51.988;6.020;2023-12-20T12:54:00;9.30;99.90
39067;DHT22;24821;51.988;6.020;2023-12-20T12:56:25;9.30;99.90
39067;DHT22;24821;51.988;6.020;2023-12-20T12:58:51;9.30;99.90
39067;DHT22;24821;51.988;6.020;2023-12-20T13:01:16;9.30;99.90
39067;DHT22;24821;51.988;6.020;2023-12-20T13:03:42;9.30;99.90
39067;DHT22;24821;51.988;6.020;2023-12-20T13:06:07;9.30;99.90
39067;DHT22;24821;51.988;6.020;2023-12-20T13:08:34;9.30;99.90
39067;DHT22;24821;51.988;6.020;2023-12-20T13:10:59;9.20;99.90
39067;DHT22;24821;51.988;6.020;2023-12-20T13:13:26;9.30;99.90
39067;DHT22;24821;51.988;6.020;2023-12-20T13:15:51;9.30;99.90
39067;DHT22;24821;51.988;6.020;2023-12-20T13:18:20;9.30;99.90
39067;DHT22;24821;51.988;6.020;2023-12-20T13:20:46;9.20;99.90
39067;DHT22;24821;51.988;6.020;2023-12-20T13:23:11;9.30;99.90
39067;DHT22;24821;51.988;6.020;2023-12-20T13:25:37;9.30;99.90
39067;DHT22;24821;51.988;6.020;2023-12-20T13:28:02;9.30;99.90
39067;DHT22;24821;51.988;6.020;2023-12-20T13:30:31;9.30;99.90
39067;DHT22;24821;51.988;6.020;2023-12-20T13:32:56;9.30;99.90
39067;DHT22;24821;51.988;6.020;2023-12-20T13:35:22;9.30;99.90
39067;DHT22;24821;51.988;6.020;2023-12-20T13:37:47;9.30;99.90
39067;DHT22;24821;51.988;6.020;2023-12-20T13:40:13;9.40;99.90
39067;DHT22;24821;51.988;6.020;2023-12-20T13:42:39;9.30;99.90
39067;DHT22;24821;51.988;6.020;2023-12-20T13:45:05;9.30;99.90
39067;DHT22;24821;51.988;6.020;2023-12-20T13:47:31;9.30;99.90
39067;DHT22;24821;51.988;6.020;2023-12-20T13:49:57;9.30;99.90
39067;DHT22;24821;51.988;6.020;2023-12-20T13:52:22;9.40;99.90
39067;DHT22;24821;51.988;6.020;2023-12-20T13:54:48;9.30;99.90
39067;DHT22;24821;51.988;6.020;2023-12-20T13:57:13;9.40;99.90
39067;DHT22;24821;51.988;6.020;2023-12-20T13:59:39;9.40;99.90
39067;DHT22;24821;51.988;6.020;2023-12-20T14:02:04;9.40;99.90
39067;DHT22;24821;51.988;6.020;2023-12-20T14:04:30;9.40;99.90
39067;DHT22;24821;51.988;6.020;2023-12-20T14:06:56;9.40;99.90
39067;DHT22;24821;51.988;6.020;2023-12-20T14:09:22;9.40;99.90
39067;DHT22;24821;51.988;6.020;2023-12-20T14:11:47;9.50;99.90
39067;DHT22;24821;51.988;6.020;2023-12-20T14:14:13;9.50;99.90
39067;DHT22;24821;51.988;6.020;2023-12-20T14:16:38;9.50;99.90
39067;DHT22;24821;51.988;6.020;2023-12-20T14:19:04;9.50;99.90
39067;DHT22;24821;51.988;6.020;2023-12-20T14:21:32;9.50;99.90
39067;DHT22;24821;51.988;6.020;2023-12-20T14:23:58;9.50;99.90
39067;DHT22;24821;51.988;6.020;2023-12-20T14:26:24;9.50;99.90
39067;DHT22;24821;51.988;6.020;2023-12-20T14:28:49;9.50;99.90
39067;DHT22;24821;51.988;6.020;2023-12-20T14:31:14;9.50;99.90
39067;DHT22;24821;51.988;6.020;2023-12-20T14:33:40;9.50;99.90
39067;DHT22;24821;51.988;6.020;2023-12-20T14:36:07;9.50;99.90
39067;DHT22;24821;51.988;6.020;2023-12-20T14:38:32;9.50;99.90
39067;DHT22;24821;51.988;6.020;2023-12-20T14:40:58;9.50;99.90
39067;DHT22;24821;51.988;6.020;2023-12-20T14:43:24;9.60;99.90
39067;DHT22;24821;51.988;6.020;2023-12-20T14:45:50;9.50;99.90
39067;DHT22;24821;51.988;6.020;2023-12-20T14:48:16;9.60;99.90
39067;DHT22;24821;51.988;6.020;2023-12-20T14:50:43;9.60;99.90
39067;DHT22;24821;51.988;6.020;2023-12-20T14:53:09;9.60;99.90
39067;DHT22;24821;51.988;6.020;2023-12-20T14:55:34;9.60;99.90
39067;DHT22;24821;51.988;6.020;2023-12-20T14:58:00;9.60;99.90
39067;DHT22;24821;51.988;6.020;2023-12-20T15:00:26;9.60;99.90
39067;DHT22;24821;51.988;6.020;2023-12-20T15:02:51;9.60;99.90
39067;DHT22;24821;51.988;6.020;2023-12-20T15:05:19;9.60;99.90
39067;DHT22;24821;51.988;6.020;2023-12-20T15:07:44;9.60;99.90
39067;DHT22;24821;51.988;6.020;2023-12-20T15:10:16;9.60;99.90
39067;DHT22;24821;51.988;6.020;2023-12-20T15:12:44;9.60;99.90
39067;DHT22;24821;51.988;6.020;2023-12-20T15:15:13;9.60;99.90
39067;DHT22;24821;51.988;6.020;2023-12-20T15:17:39;9.60;99.90
39067;DHT22;24821;51.988;6.020;2023-12-20T15:20:04;9.60;99.90
39067;DHT22;24821;51.988;6.020;2023-12-20T15:22:30;9.60;99.90
39067;DHT22;24821;51.988;6.020;2023-12-20T15:24:59;9.60;99.90
39067;DHT22;24821;51.988;6.020;2023-12-20T15:27:24;9.60;99.90
39067;DHT22;24821;51.988;6.020;2023-12-20T15:29:53;9.50;99.90
39067;DHT22;24821;51.988;6.020;2023-12-20T15:32:18;9.60;99.90
39067;DHT22;24821;51.988;6.020;2023-12-20T15:34:44;9.60;99.90
39067;DHT22;24821;51.988;6.020;2023-12-20T15:37:10;9.60;99.90
39067;DHT22;24821;51.988;6.020;2023-12-20T15:39:35;9.60;99.90
39067;DHT22;24821;51.988;6.020;2023-12-20T15:42:01;9.60;99.90